createdAt,value
2024-01-11T00:00:18.243Z,14.45
2024-01-11T00:03:21.868Z,12.20
2024-01-11T00:06:24.948Z,10.95
2024-01-11T00:09:28.367Z,10.43
2024-01-11T00:12:32.886Z,10.85
2024-01-11T00:15:36.390Z,9.10
2024-01-11T00:18:41.325Z,9.73
2024-01-11T00:21:44.758Z,11.20
2024-01-11T00:24:47.913Z,10.10
2024-01-11T00:27:51.165Z,10.30
2024-01-11T00:30:54.363Z,12.15
2024-01-11T00:33:58.441Z,13.05
2024-01-11T00:37:01.474Z,14.18
2024-01-11T00:40:06.038Z,14.68
2024-01-11T00:43:09.013Z,13.38
2024-01-11T00:46:12.248Z,16.17
2024-01-11T00:49:15.281Z,13.88
2024-01-11T00:52:18.668Z,15.80
2024-01-11T00:55:21.587Z,11.93
2024-01-11T00:58:24.878Z,12.65
2024-01-11T01:01:27.903Z,12.63
2024-01-11T01:04:34.220Z,9.45
2024-01-11T01:07:37.364Z,10.43
2024-01-11T01:10:41.136Z,10.02
2024-01-11T01:13:44.049Z,7.68
2024-01-11T01:16:48.258Z,8.65
2024-01-11T01:19:51.167Z,11.02
2024-01-11T01:22:54.445Z,11.12
2024-01-11T01:25:57.477Z,10.18
2024-01-11T01:29:00.915Z,11.75
2024-01-11T01:32:04.412Z,12.32
2024-01-11T01:35:08.921Z,11.27
2024-01-11T01:38:11.900Z,11.73
2024-01-11T01:41:17.868Z,11.32
2024-01-11T01:44:20.985Z,10.48
2024-01-11T01:47:24.571Z,11.27
2024-01-11T01:50:27.796Z,11.30
2024-01-11T01:53:31.421Z,8.00
2024-01-11T01:56:34.631Z,10.35
2024-01-11T01:59:39.859Z,10.00
2024-01-11T02:02:46.731Z,9.15
2024-01-11T02:05:52.815Z,9.75
2024-01-11T02:09:00.773Z,8.63
2024-01-11T02:12:07.537Z,9.90
2024-01-11T02:15:10.680Z,8.90
2024-01-11T02:18:14.250Z,9.10
2024-01-11T02:21:19.297Z,12.30
2024-01-11T02:24:22.632Z,11.63
2024-01-11T02:27:26.277Z,8.95
2024-01-11T02:30:29.701Z,11.27
2024-01-11T02:33:32.850Z,10.60
2024-01-11T02:36:36.204Z,11.93
2024-01-11T02:39:39.255Z,10.90
2024-01-11T02:42:42.568Z,10.93
2024-01-11T02:45:45.892Z,11.43
2024-01-11T02:48:50.213Z,10.80
2024-01-11T02:51:53.375Z,11.60
2024-01-11T02:54:56.655Z,12.07
2024-01-11T02:57:59.570Z,12.50
2024-01-11T03:01:03.132Z,12.85
2024-01-11T03:04:07.854Z,13.25
2024-01-11T03:07:11.176Z,15.00
2024-01-11T03:10:14.446Z,16.30
2024-01-11T03:13:20.493Z,17.37
2024-01-11T03:16:23.591Z,16.58
2024-01-11T03:19:26.973Z,16.62
2024-01-11T03:22:30.119Z,13.88
2024-01-11T03:25:33.410Z,15.25
2024-01-11T03:28:36.689Z,14.15
2024-01-11T03:31:42.796Z,12.63
2024-01-11T03:34:45.717Z,12.57
2024-01-11T03:37:49.010Z,13.88
2024-01-11T03:40:51.714Z,15.52
2024-01-11T03:43:55.016Z,10.88
2024-01-11T03:46:58.910Z,12.35
2024-01-11T03:50:02.339Z,13.40
2024-01-11T03:53:06.712Z,11.95
2024-01-11T03:56:11.746Z,11.27
2024-01-11T03:59:15.585Z,10.63
2024-01-11T04:02:19.445Z,11.33
2024-01-11T04:05:22.841Z,11.18
2024-01-11T04:08:25.885Z,8.93
2024-01-11T04:11:30.985Z,9.00
2024-01-11T04:14:34.139Z,8.63
2024-01-11T04:17:38.664Z,9.82
2024-01-11T04:20:41.949Z,8.32
2024-01-11T04:23:45.318Z,8.23
2024-01-11T04:26:52.528Z,9.23
2024-01-11T04:29:57.584Z,8.48
2024-01-11T04:33:00.867Z,10.32
2024-01-11T04:36:04.506Z,8.88
2024-01-11T04:39:08.775Z,9.73
2024-01-11T04:42:12.240Z,10.47
2024-01-11T04:45:15.190Z,10.45
2024-01-11T04:48:20.649Z,10.73
2024-01-11T04:51:23.686Z,8.90
2024-01-11T04:54:29.194Z,8.73
2024-01-11T04:57:34.497Z,11.02
2024-01-11T05:00:37.784Z,10.13
2024-01-11T05:03:40.857Z,11.12
2024-01-11T05:06:45.758Z,10.13
2024-01-11T05:09:48.767Z,10.80
2024-01-11T05:12:52.945Z,11.07
2024-01-11T05:15:58.927Z,11.23
2024-01-11T05:19:03.817Z,11.35
2024-01-11T05:22:07.399Z,11.43
2024-01-11T05:25:10.787Z,11.15
2024-01-11T05:28:14.631Z,10.45
2024-01-11T05:31:18.726Z,12.05
2024-01-11T05:34:22.173Z,16.62
2024-01-11T05:37:25.811Z,10.80
2024-01-11T05:40:28.840Z,11.27
2024-01-11T05:43:32.497Z,15.32
2024-01-11T05:46:37.311Z,11.32
2024-01-11T05:49:42.179Z,13.52
2024-01-11T05:52:45.113Z,11.93
2024-01-11T05:55:51.896Z,12.60
2024-01-11T05:58:56.141Z,11.32
2024-01-11T06:02:01.724Z,11.43
2024-01-11T06:05:05.570Z,11.63
2024-01-11T06:08:08.731Z,11.80
2024-01-11T06:11:13.213Z,10.50
2024-01-11T06:14:16.570Z,10.90
2024-01-11T06:17:20.190Z,12.55
2024-01-11T06:20:23.423Z,11.93
2024-01-11T06:23:27.027Z,11.93
2024-01-11T06:26:32.007Z,12.32
2024-01-11T06:29:35.362Z,12.45
2024-01-11T06:32:40.121Z,11.20
2024-01-11T06:35:43.564Z,12.85
2024-01-11T06:38:46.589Z,11.02
2024-01-11T06:41:51.967Z,13.10
2024-01-11T06:44:55.016Z,13.15
2024-01-11T06:47:58.606Z,13.90
2024-01-11T06:51:02.250Z,14.00
2024-01-11T06:54:05.950Z,12.93
2024-01-11T06:57:08.937Z,12.18
2024-01-11T07:00:14.884Z,13.30
2024-01-11T07:03:19.054Z,14.13
2024-01-11T07:06:24.008Z,11.73
2024-01-11T07:09:27.032Z,16.90
2024-01-11T07:12:30.708Z,14.32
2024-01-11T07:15:33.678Z,13.18
2024-01-11T07:18:37.800Z,13.70
2024-01-11T07:21:40.825Z,12.00
2024-01-11T07:24:43.834Z,16.05
2024-01-11T07:27:49.747Z,15.15
2024-01-11T07:30:54.537Z,14.73
2024-01-11T07:33:58.617Z,13.65
2024-01-11T07:37:01.964Z,15.20
2024-01-11T07:40:05.352Z,15.50
2024-01-11T07:43:09.764Z,14.82
2024-01-11T07:46:15.755Z,13.27
2024-01-11T07:49:19.090Z,20.42
2024-01-11T07:52:22.490Z,21.85
2024-01-11T07:55:25.954Z,26.75
2024-01-11T07:58:28.883Z,23.65
2024-01-11T08:01:36.718Z,25.30
2024-01-11T08:04:40.268Z,20.67
2024-01-11T08:07:45.971Z,22.05
2024-01-11T08:10:51.234Z,22.13
2024-01-11T08:13:56.075Z,23.67
2024-01-11T08:16:59.834Z,22.70
2024-01-11T08:20:03.840Z,22.75
2024-01-11T08:26:13.662Z,20.40
2024-01-11T08:29:17.059Z,22.50
2024-01-11T08:32:28.701Z,20.85
2024-01-11T08:35:36.574Z,19.80
2024-01-11T08:38:42.118Z,16.83
2024-01-11T08:41:46.817Z,16.83
2024-01-11T08:44:50.023Z,20.27
2024-01-11T08:47:58.419Z,20.92
2024-01-11T08:51:01.590Z,22.70
2024-01-11T08:54:05.600Z,20.55
2024-01-11T08:57:08.826Z,17.80
2024-01-11T09:00:13.566Z,15.85
2024-01-11T09:03:18.637Z,15.38
2024-01-11T09:06:22.166Z,18.65
2024-01-11T09:09:25.452Z,17.73
2024-01-11T09:12:28.604Z,16.40
2024-01-11T09:15:31.508Z,18.52
2024-01-11T09:18:34.525Z,20.33
2024-01-11T09:21:37.986Z,19.98
2024-01-11T09:24:41.265Z,23.35
2024-01-11T09:27:47.022Z,20.40
2024-01-11T09:30:51.083Z,20.58
2024-01-11T09:33:58.505Z,19.33
2024-01-11T09:37:01.981Z,16.55
2024-01-11T09:40:09.382Z,17.83
2024-01-11T09:43:16.466Z,18.02
2024-01-11T09:46:19.728Z,17.55
2024-01-11T09:49:24.308Z,17.25
2024-01-11T09:52:27.906Z,16.77
2024-01-11T09:55:31.323Z,16.40
2024-01-11T09:58:40.115Z,16.52
2024-01-11T10:01:43.448Z,15.52
2024-01-11T10:04:53.517Z,16.45
2024-01-11T10:07:56.440Z,16.05
2024-01-11T10:10:59.753Z,16.25
2024-01-11T10:14:02.858Z,17.48
2024-01-11T10:17:07.586Z,16.25
2024-01-11T10:20:16.743Z,18.12
2024-01-11T10:23:21.774Z,18.37
2024-01-11T10:26:24.730Z,17.27
2024-01-11T10:29:34.360Z,19.52
2024-01-11T10:32:39.808Z,18.98
2024-01-11T10:35:45.225Z,18.27
2024-01-11T10:38:50.068Z,18.70
2024-01-11T10:42:03.569Z,18.77
2024-01-11T10:45:20.295Z,18.75
2024-01-11T10:48:24.649Z,19.42
2024-01-11T10:51:29.364Z,13.82
2024-01-11T10:54:32.986Z,14.90
2024-01-11T10:57:36.114Z,13.75
2024-01-11T11:00:39.368Z,14.65
2024-01-11T11:03:45.816Z,15.10
2024-01-11T11:06:52.364Z,14.10
2024-01-11T11:09:56.931Z,11.60
2024-01-11T11:13:02.462Z,8.85
2024-01-11T11:16:06.254Z,15.35
2024-01-11T11:19:10.025Z,12.65
2024-01-11T11:22:15.556Z,10.73
2024-01-11T11:25:27.972Z,11.12
2024-01-11T11:28:31.676Z,13.73
2024-01-11T11:31:47.089Z,12.27
2024-01-11T11:34:53.759Z,15.23
2024-01-11T11:37:58.348Z,14.93
2024-01-11T11:41:02.376Z,14.30
2024-01-11T11:44:06.602Z,11.55
2024-01-11T11:47:25.542Z,14.48
2024-01-11T11:50:31.254Z,14.18
2024-01-11T11:53:41.793Z,10.85
2024-01-11T11:56:46.614Z,11.05
2024-01-11T11:59:50.711Z,13.82
2024-01-11T12:02:56.228Z,13.45
2024-01-11T12:06:02.194Z,14.77
2024-01-11T12:09:05.312Z,11.88
2024-01-11T12:12:15.505Z,14.05
2024-01-11T12:15:19.957Z,14.07
2024-01-11T12:18:23.578Z,13.07
2024-01-11T12:21:28.319Z,12.30
2024-01-11T12:24:32.733Z,14.30
2024-01-11T12:27:35.744Z,12.55
2024-01-11T12:30:39.736Z,11.85
2024-01-11T12:33:44.730Z,11.50
2024-01-11T12:36:48.482Z,10.77
2024-01-11T12:39:53.865Z,10.80
2024-01-11T12:42:59.613Z,11.77
2024-01-11T12:46:04.002Z,12.10
2024-01-11T12:49:11.875Z,12.73
2024-01-11T12:52:21.153Z,13.73
2024-01-11T12:55:25.483Z,12.27
2024-01-11T12:58:29.999Z,11.82
2024-01-11T13:01:33.268Z,11.57
2024-01-11T13:04:36.193Z,13.32
2024-01-11T13:07:39.575Z,12.65
2024-01-11T13:10:43.204Z,13.25
2024-01-11T13:13:48.347Z,12.02
2024-01-11T13:19:55.687Z,10.35
2024-01-11T13:23:22.427Z,9.95
2024-01-11T13:26:26.111Z,12.55
2024-01-11T13:29:30.878Z,11.48
2024-01-11T13:32:34.231Z,12.55
2024-01-11T13:35:38.162Z,11.70
2024-01-11T13:38:43.132Z,14.13
2024-01-11T13:41:46.140Z,9.77
2024-01-11T13:44:49.489Z,14.45
2024-01-11T13:47:52.727Z,13.40
2024-01-11T13:50:56.700Z,14.23
2024-01-11T13:54:01.888Z,13.15
2024-01-11T14:00:12.565Z,15.10
2024-01-11T14:03:15.996Z,12.63
2024-01-11T14:06:19.027Z,14.07
2024-01-11T14:09:24.957Z,13.32
2024-01-11T14:12:27.955Z,13.32
2024-01-11T14:15:32.247Z,9.60
2024-01-11T14:18:35.538Z,13.55
2024-01-11T14:21:38.916Z,8.63
2024-01-11T14:24:42.026Z,8.13
2024-01-11T14:27:46.628Z,11.88
2024-01-11T14:30:50.090Z,12.32
2024-01-11T14:33:53.801Z,13.07
2024-01-11T14:36:56.866Z,11.18
2024-01-11T14:40:00.662Z,12.55
2024-01-11T14:43:05.719Z,13.38
2024-01-11T14:49:15.655Z,8.90
2024-01-11T14:52:22.282Z,10.07
2024-01-11T14:55:25.268Z,13.50
2024-01-11T14:58:28.620Z,13.45
2024-01-11T15:01:32.284Z,15.73
2024-01-11T15:04:36.211Z,12.98
2024-01-11T15:07:39.221Z,12.88
2024-01-11T15:10:43.948Z,13.68
2024-01-11T15:13:47.353Z,11.57
2024-01-11T15:16:53.072Z,10.68
2024-01-11T15:22:59.285Z,14.30
2024-01-11T15:26:03.058Z,17.10
2024-01-11T15:29:08.601Z,15.95
2024-01-11T15:32:14.382Z,17.37
2024-01-11T15:35:17.779Z,14.80
2024-01-11T15:38:20.946Z,15.13
2024-01-11T15:41:24.575Z,17.60
2024-01-11T15:44:28.833Z,16.17
2024-01-11T15:47:33.346Z,12.85
2024-01-11T15:50:36.459Z,17.42
2024-01-11T15:53:39.871Z,17.40
2024-01-11T15:56:42.921Z,20.35
2024-01-11T15:59:46.306Z,19.48
2024-01-11T16:02:49.729Z,16.65
2024-01-11T16:05:53.137Z,20.02
2024-01-11T16:08:56.269Z,8.75
2024-01-11T16:12:03.551Z,18.40
2024-01-11T16:15:08.966Z,11.60
2024-01-11T16:18:12.785Z,20.85
2024-01-11T16:21:15.898Z,21.67
2024-01-11T16:24:19.286Z,18.42
2024-01-11T16:27:24.308Z,16.77
2024-01-11T16:30:27.644Z,19.73
2024-01-11T16:33:31.852Z,16.95
2024-01-11T16:36:41.027Z,20.10
2024-01-11T16:39:44.465Z,19.70
2024-01-11T16:42:48.801Z,21.10
2024-01-11T16:45:51.996Z,17.87
2024-01-11T16:48:56.066Z,18.67
2024-01-11T16:51:59.233Z,21.55
2024-01-11T16:55:02.577Z,23.30
2024-01-11T16:58:06.541Z,23.48
2024-01-11T17:01:12.683Z,19.92
2024-01-11T17:04:16.413Z,22.30
2024-01-11T17:07:20.128Z,21.45
2024-01-11T17:10:27.554Z,18.98
2024-01-11T17:13:33.972Z,20.35
2024-01-11T17:16:37.632Z,21.10
2024-01-11T17:19:40.931Z,17.85
2024-01-11T17:22:44.026Z,17.70
2024-01-11T17:25:49.170Z,15.15
2024-01-11T17:28:56.336Z,13.05
2024-01-11T17:32:00.068Z,17.40
2024-01-11T17:35:03.332Z,17.98
2024-01-11T17:38:07.366Z,14.68
2024-01-11T17:41:10.444Z,16.67
2024-01-11T17:44:14.915Z,18.80
2024-01-11T17:47:19.769Z,19.95
2024-01-11T17:50:23.365Z,5.35
2024-01-11T17:53:27.719Z,18.45
2024-01-11T17:59:35.105Z,17.92
2024-01-11T18:02:38.420Z,17.15
2024-01-11T18:05:43.109Z,17.67
2024-01-11T18:08:47.137Z,17.40
2024-01-11T18:11:53.626Z,15.20
2024-01-11T18:14:56.809Z,16.90
2024-01-11T18:18:00.881Z,19.42
2024-01-11T18:21:05.140Z,18.15
2024-01-11T18:24:09.358Z,16.67
2024-01-11T18:27:12.558Z,19.52
2024-01-11T18:30:16.194Z,18.40
2024-01-11T18:33:19.455Z,18.17
2024-01-11T18:36:24.231Z,18.70
2024-01-11T18:39:28.770Z,19.70
2024-01-11T18:42:32.194Z,20.73
2024-01-11T18:45:36.455Z,19.70
2024-01-11T18:48:41.310Z,14.57
2024-01-11T18:51:44.489Z,20.23
2024-01-11T18:54:54.242Z,17.95
2024-01-11T18:58:04.796Z,18.10
2024-01-11T19:01:11.528Z,16.35
2024-01-11T19:04:15.501Z,18.60
2024-01-11T19:07:21.082Z,15.70
2024-01-11T19:10:26.645Z,14.90
2024-01-11T19:13:31.467Z,17.08
2024-01-11T19:16:37.604Z,15.82
2024-01-11T19:19:43.652Z,16.42
2024-01-11T19:22:47.517Z,16.55
2024-01-11T19:25:59.033Z,15.38
2024-01-11T19:29:02.091Z,15.35
2024-01-11T19:32:06.549Z,16.23
2024-01-11T19:35:11.838Z,15.30
2024-01-11T19:38:16.020Z,16.98
2024-01-11T19:41:23.198Z,14.63
2024-01-11T19:44:28.720Z,15.30
2024-01-11T19:47:32.434Z,15.70
2024-01-11T19:50:35.908Z,14.90
2024-01-11T19:53:40.109Z,14.60
2024-01-11T19:56:43.639Z,15.80
2024-01-11T19:59:46.826Z,14.68
2024-01-11T20:02:51.046Z,13.40
2024-01-11T20:05:55.732Z,13.48
2024-01-11T20:09:00.648Z,14.23
2024-01-11T20:12:04.342Z,14.48
2024-01-11T20:15:09.908Z,14.07
2024-01-11T20:18:14.726Z,15.10
2024-01-11T20:21:19.218Z,14.57
2024-01-11T20:24:23.160Z,13.45
2024-01-11T20:27:26.308Z,11.82
2024-01-11T20:30:29.820Z,13.55
2024-01-11T20:33:33.435Z,13.05
2024-01-11T20:36:37.119Z,10.07
2024-01-11T20:39:42.017Z,12.70
2024-01-11T20:42:46.020Z,14.05
2024-01-11T20:45:49.326Z,11.43
2024-01-11T20:48:53.423Z,13.13
2024-01-11T20:51:58.785Z,12.82
2024-01-11T20:58:07.011Z,12.02
2024-01-11T21:04:13.678Z,13.30
2024-01-11T21:07:17.149Z,12.65
2024-01-11T21:10:20.439Z,12.85
2024-01-11T21:13:27.852Z,13.95
2024-01-11T21:16:34.173Z,15.48
2024-01-11T21:19:40.416Z,14.70
2024-01-11T21:22:45.346Z,10.40
2024-01-11T21:25:48.695Z,16.50
2024-01-11T21:28:56.016Z,6.95
2024-01-11T21:31:59.249Z,13.48
2024-01-11T21:35:03.193Z,12.82
2024-01-11T21:38:06.382Z,14.15
2024-01-11T21:41:09.517Z,14.73
2024-01-11T21:44:12.950Z,14.60
2024-01-11T21:47:16.031Z,13.40
2024-01-11T21:50:19.320Z,14.75
2024-01-11T21:53:26.213Z,15.75
2024-01-11T21:56:31.546Z,21.05
2024-01-11T21:59:34.724Z,18.10
2024-01-11T22:02:38.872Z,17.23
2024-01-11T22:05:42.213Z,14.93
2024-01-11T22:08:45.364Z,13.88
2024-01-11T22:11:48.784Z,12.90
2024-01-11T22:14:51.885Z,11.73
2024-01-11T22:17:55.856Z,12.75
2024-01-11T22:20:59.342Z,11.35
2024-01-11T22:24:02.772Z,12.40
2024-01-11T22:27:08.928Z,12.57
2024-01-11T22:30:15.091Z,13.43
2024-01-11T22:33:19.426Z,12.55
2024-01-11T22:36:25.072Z,13.70
2024-01-11T22:39:27.932Z,13.65
2024-01-11T22:42:30.985Z,13.27
2024-01-11T22:45:35.392Z,13.60
2024-01-11T22:48:41.965Z,7.37
2024-01-11T22:51:45.393Z,11.57
2024-01-11T22:54:48.487Z,12.57
2024-01-11T22:57:51.447Z,12.48
2024-01-11T23:00:56.584Z,10.75
2024-01-11T23:04:00.067Z,10.85
2024-01-11T23:07:04.301Z,11.88
2024-01-11T23:10:07.869Z,11.95
2024-01-11T23:13:11.158Z,10.60
2024-01-11T23:16:14.101Z,12.57
2024-01-11T23:19:17.969Z,11.77
2024-01-11T23:22:22.428Z,12.80
2024-01-11T23:25:25.870Z,11.43
2024-01-11T23:28:29.634Z,11.82
2024-01-11T23:31:32.900Z,13.15
2024-01-11T23:34:36.055Z,12.45
2024-01-11T23:37:39.473Z,12.32
2024-01-11T23:40:42.488Z,13.25
2024-01-11T23:43:45.931Z,13.43
2024-01-11T23:46:48.867Z,13.48
2024-01-11T23:49:52.454Z,11.50
2024-01-11T23:52:55.528Z,11.77
2024-01-11T23:56:02.161Z,12.00
2024-01-11T23:59:05.139Z,10.65
